createdAt,value
2024-02-13T00:02:39.876Z,99488.16
2024-02-13T00:05:44.489Z,99489.81
2024-02-13T00:08:48.711Z,99491.00
2024-02-13T00:11:52.403Z,99500.09
2024-02-13T00:14:56.314Z,99496.28
2024-02-13T00:18:01.195Z,99504.69
2024-02-13T00:21:04.024Z,99500.72
2024-02-13T00:24:07.084Z,99509.66
2024-02-13T00:27:09.681Z,99514.75
2024-02-13T00:30:13.349Z,99510.63
2024-02-13T00:33:18.660Z,99521.87
2024-02-13T00:36:22.961Z,99515.44
2024-02-13T00:39:25.615Z,99523.00
2024-02-13T00:42:28.357Z,99516.75
2024-02-13T00:45:30.871Z,99530.28
2024-02-13T00:48:34.596Z,99520.25
2024-02-13T00:51:37.431Z,99525.50
2024-02-13T00:54:40.313Z,99527.97
2024-02-13T00:57:42.898Z,99535.91
2024-02-13T01:00:46.313Z,99538.03
2024-02-13T01:03:49.367Z,99533.78
2024-02-13T01:06:52.405Z,99540.84
2024-02-13T01:09:54.919Z,99541.97
2024-02-13T01:12:59.898Z,99558.47
2024-02-13T01:16:05.161Z,99552.84
2024-02-13T01:19:08.458Z,99559.13
2024-02-13T01:22:12.897Z,99553.03
2024-02-13T01:25:15.892Z,99551.72
2024-02-13T01:28:20.756Z,99569.69
2024-02-13T01:31:23.672Z,99564.41
2024-02-13T01:34:27.788Z,99561.78
2024-02-13T01:37:30.864Z,99563.91
2024-02-13T01:40:33.562Z,99577.41
2024-02-13T01:43:36.313Z,99575.97
2024-02-13T01:46:40.781Z,99577.75
2024-02-13T01:49:43.744Z,99587.78
2024-02-13T01:52:47.182Z,99583.69
2024-02-13T01:55:51.450Z,99594.41
2024-02-13T01:58:54.344Z,99593.75
2024-02-13T02:01:57.070Z,99602.47
2024-02-13T02:05:01.240Z,99598.84
2024-02-13T02:08:03.995Z,99597.84
2024-02-13T02:11:06.917Z,99594.88
2024-02-13T02:14:10.220Z,99598.34
2024-02-13T02:17:13.251Z,99596.72
2024-02-13T02:20:15.773Z,99593.56
2024-02-13T02:23:20.360Z,99607.75
2024-02-13T02:26:23.243Z,99602.78
2024-02-13T02:29:26.570Z,99606.72
2024-02-13T02:32:29.395Z,99603.41
2024-02-13T02:35:32.417Z,99613.75
2024-02-13T02:38:39.462Z,99609.66
2024-02-13T02:41:42.372Z,99607.34
2024-02-13T02:44:45.005Z,99609.31
2024-02-13T02:47:48.264Z,99619.50
2024-02-13T02:50:50.992Z,99607.84
2024-02-13T02:53:54.147Z,99618.69
2024-02-13T02:56:56.678Z,99616.03
2024-02-13T02:59:59.812Z,99620.13
2024-02-13T03:03:03.608Z,99627.22
2024-02-13T03:06:07.072Z,99626.56
2024-02-13T03:09:10.332Z,99635.78
2024-02-13T03:12:13.145Z,99635.94
2024-02-13T03:15:15.769Z,99643.00
2024-02-13T03:18:19.359Z,99651.41
2024-02-13T03:21:23.154Z,99647.94
2024-02-13T03:24:25.947Z,99651.88
2024-02-13T03:27:28.391Z,99656.84
2024-02-13T03:30:31.368Z,99669.47
2024-02-13T03:33:34.156Z,99664.06
2024-02-13T03:36:38.147Z,99669.81
2024-02-13T03:39:44.054Z,99681.84
2024-02-13T03:42:46.859Z,99678.88
2024-02-13T03:45:50.012Z,99683.78
2024-02-13T03:48:52.886Z,99688.00
2024-02-13T03:51:55.425Z,99681.75
2024-02-13T03:54:58.659Z,99692.59
2024-02-13T03:58:01.750Z,99696.53
2024-02-13T04:01:04.656Z,99698.03
2024-02-13T04:04:07.580Z,99700.81
2024-02-13T04:07:10.082Z,99707.06
2024-02-13T04:10:13.297Z,99705.94
2024-02-13T04:13:16.173Z,99704.50
2024-02-13T04:16:19.512Z,99718.16
2024-02-13T04:19:22.277Z,99717.38
2024-02-13T04:22:25.650Z,99735.16
2024-02-13T04:25:28.155Z,99736.75
2024-02-13T04:28:31.047Z,99736.59
2024-02-13T04:31:33.908Z,99739.22
2024-02-13T04:34:36.889Z,99741.00
2024-02-13T04:37:39.564Z,99739.47
2024-02-13T04:40:42.435Z,99750.63
2024-02-13T04:43:45.106Z,99742.37
2024-02-13T04:46:48.029Z,99747.66
2024-02-13T04:49:50.649Z,99744.09
2024-02-13T04:52:53.506Z,99747.63
2024-02-13T04:55:56.487Z,99753.56
2024-02-13T04:58:59.277Z,99755.25
2024-02-13T05:02:05.526Z,99744.34
2024-02-13T05:05:27.465Z,99758.38
2024-02-13T05:08:31.382Z,99761.47
2024-02-13T05:11:34.252Z,99776.91
2024-02-13T05:14:37.106Z,99784.62
2024-02-13T05:17:40.097Z,99791.53
2024-02-13T05:20:42.813Z,99784.78
2024-02-13T05:23:48.571Z,99798.22
2024-02-13T05:26:51.508Z,99804.78
2024-02-13T05:29:54.490Z,99802.22
2024-02-13T05:32:58.101Z,99806.12
2024-02-13T05:36:03.162Z,99809.34
2024-02-13T05:39:05.840Z,99818.91
2024-02-13T05:42:10.139Z,99820.31
2024-02-13T05:45:12.881Z,99817.03
2024-02-13T05:48:16.067Z,99823.78
2024-02-13T05:51:19.975Z,99831.97
2024-02-13T05:54:23.328Z,99840.53
2024-02-13T05:57:26.470Z,99846.78
2024-02-13T06:00:29.416Z,99857.78
2024-02-13T06:03:34.188Z,99857.78
2024-02-13T06:06:38.584Z,99864.84
2024-02-13T06:09:41.990Z,99873.75
2024-02-13T06:12:45.221Z,99870.16
2024-02-13T06:15:48.320Z,99874.91
2024-02-13T06:18:50.996Z,99880.94
2024-02-13T06:21:54.004Z,99886.03
2024-02-13T06:24:56.583Z,99887.13
2024-02-13T06:27:59.536Z,99891.63
2024-02-13T06:31:04.519Z,99902.97
2024-02-13T06:34:07.617Z,99897.72
2024-02-13T06:37:11.949Z,99902.91
2024-02-13T06:40:16.383Z,99926.47
2024-02-13T06:43:20.536Z,99931.34
2024-02-13T06:46:23.383Z,99937.72
2024-02-13T06:52:30.969Z,99952.25
2024-02-13T06:55:33.791Z,99947.56
2024-02-13T06:58:39.324Z,99956.97
2024-02-13T07:01:42.074Z,99951.88
2024-02-13T07:04:45.027Z,99958.09
2024-02-13T07:07:49.236Z,99966.91
2024-02-13T07:10:53.677Z,99965.41
2024-02-13T07:13:56.702Z,99965.38
2024-02-13T07:16:59.582Z,99958.03
2024-02-13T07:20:02.878Z,99965.91
2024-02-13T07:23:05.791Z,99971.56
2024-02-13T07:26:12.714Z,99986.09
2024-02-13T07:29:17.336Z,99989.81
2024-02-13T07:32:21.512Z,99986.72
2024-02-13T07:35:24.441Z,99991.81
2024-02-13T07:38:27.712Z,100008.44
2024-02-13T07:41:30.699Z,99997.41
2024-02-13T07:44:35.684Z,99995.59
2024-02-13T07:47:40.611Z,99995.25
2024-02-13T07:50:43.633Z,99997.19
2024-02-13T07:53:46.516Z,99993.09
2024-02-13T07:56:49.712Z,99999.59
2024-02-13T07:59:56.741Z,100009.41
2024-02-13T08:03:00.898Z,100015.25
2024-02-13T08:06:04.016Z,100024.50
2024-02-13T08:09:06.982Z,100020.00
2024-02-13T08:12:10.431Z,100026.19
2024-02-13T08:15:12.976Z,100036.34
2024-02-13T08:18:19.196Z,100031.19
2024-02-13T08:21:23.746Z,100024.69
2024-02-13T08:24:26.671Z,100037.41
2024-02-13T08:27:30.734Z,100030.06
2024-02-13T08:30:33.688Z,100029.91
2024-02-13T08:33:36.413Z,100041.41
2024-02-13T08:36:40.653Z,100046.31
2024-02-13T08:39:43.378Z,100050.66
2024-02-13T08:42:46.810Z,100055.81
2024-02-13T08:45:49.387Z,100059.06
2024-02-13T08:48:52.665Z,100054.41
2024-02-13T08:51:56.410Z,100056.16
2024-02-13T08:54:59.388Z,100061.25
2024-02-13T08:58:02.045Z,100056.75
2024-02-13T09:01:06.130Z,100069.12
2024-02-13T09:04:08.897Z,100061.88
2024-02-13T09:07:11.862Z,100064.34
2024-02-13T09:10:14.499Z,100063.87
2024-02-13T09:13:17.524Z,100073.34
2024-02-13T09:16:20.775Z,100077.16
2024-02-13T09:19:23.749Z,100084.59
2024-02-13T09:22:26.337Z,100085.59
2024-02-13T09:25:29.317Z,100092.41
2024-02-13T09:28:32.558Z,100086.97
2024-02-13T09:31:35.605Z,100104.00
2024-02-13T09:34:41.419Z,100093.75
2024-02-13T09:37:45.017Z,100108.81
2024-02-13T09:40:49.401Z,100111.16
2024-02-13T09:43:52.793Z,100114.28
2024-02-13T09:46:55.612Z,100107.50
2024-02-13T09:50:00.755Z,100110.84
2024-02-13T09:53:09.841Z,100119.59
2024-02-13T09:56:15.367Z,100120.25
2024-02-13T09:59:22.968Z,100119.75
2024-02-13T10:02:29.231Z,100127.16
2024-02-13T10:05:32.321Z,100124.38
2024-02-13T10:08:39.110Z,100126.69
2024-02-13T10:11:44.009Z,100132.00
2024-02-13T10:14:57.635Z,100114.63
2024-02-13T10:18:01.064Z,100119.91
2024-02-13T10:21:06.073Z,100107.00
2024-02-13T10:24:14.368Z,100113.97
2024-02-13T10:27:19.209Z,100116.94
2024-02-13T10:30:26.908Z,100115.25
2024-02-13T10:33:29.866Z,100113.53
2024-02-13T10:36:36.228Z,100118.97
2024-02-13T10:39:41.613Z,100119.78
2024-02-13T10:42:45.271Z,100123.28
2024-02-13T10:45:51.419Z,100124.09
2024-02-13T10:49:32.321Z,100110.91
2024-02-13T10:52:36.934Z,100117.88
2024-02-13T10:55:43.768Z,100128.09
2024-02-13T10:58:51.782Z,100125.66
2024-02-13T11:02:00.748Z,100120.03
2024-02-13T11:05:11.148Z,100138.69
2024-02-13T11:08:15.055Z,100129.38
2024-02-13T11:11:18.682Z,100130.53
2024-02-13T11:14:25.322Z,100129.81
2024-02-13T11:17:32.828Z,100143.69
2024-02-13T11:20:43.530Z,100141.59
2024-02-13T11:24:02.591Z,100143.22
2024-02-13T11:27:19.562Z,100148.56
2024-02-13T11:30:29.559Z,100159.22
2024-02-13T11:33:33.344Z,100132.97
2024-02-13T11:36:36.898Z,100146.09
2024-02-13T11:39:42.582Z,100145.06
2024-02-13T11:42:45.835Z,100150.94
2024-02-13T11:45:50.465Z,100148.53
2024-02-13T11:48:55.922Z,100141.69
2024-02-13T11:51:58.909Z,100148.13
2024-02-13T11:55:02.662Z,100152.00
2024-02-13T11:58:15.907Z,100149.59
2024-02-13T12:01:19.637Z,100151.59
2024-02-13T12:04:23.249Z,100158.91
2024-02-13T12:07:26.162Z,100140.97
2024-02-13T12:10:29.437Z,100148.47
2024-02-13T12:13:32.918Z,100150.75
2024-02-13T12:16:36.881Z,100141.22
2024-02-13T12:19:43.281Z,100143.97
2024-02-13T12:22:46.298Z,100153.06
2024-02-13T12:25:59.367Z,100143.88
2024-02-13T12:29:16.026Z,100142.22
2024-02-13T12:32:19.302Z,100141.22
2024-02-13T12:35:33.601Z,100148.34
2024-02-13T12:38:39.766Z,100147.66
2024-02-13T12:41:42.659Z,100151.31
2024-02-13T12:44:46.247Z,100147.47
2024-02-13T12:47:49.816Z,100167.03
2024-02-13T12:50:52.893Z,100162.94
2024-02-13T12:53:55.895Z,100156.59
2024-02-13T12:56:58.536Z,100164.81
2024-02-13T13:00:01.578Z,100164.97
2024-02-13T13:03:05.823Z,100157.62
2024-02-13T13:06:12.750Z,100171.19
2024-02-13T13:09:23.895Z,100161.00
2024-02-13T13:12:31.037Z,100175.87
2024-02-13T13:15:34.818Z,100175.72
2024-02-13T13:18:39.990Z,100182.72
2024-02-13T13:21:43.597Z,100186.75
2024-02-13T13:24:46.483Z,100196.00
2024-02-13T13:27:49.300Z,100187.56
2024-02-13T13:31:01.195Z,100218.66
2024-02-13T13:34:06.801Z,100216.75
2024-02-13T13:37:11.665Z,100218.19
2024-02-13T13:40:15.549Z,100239.63
2024-02-13T13:43:20.249Z,100239.50
2024-02-13T13:46:23.601Z,100226.09
2024-02-13T13:49:26.617Z,100236.28
2024-02-13T13:52:29.224Z,100216.16
2024-02-13T13:55:32.191Z,100221.13
2024-02-13T13:58:34.830Z,100217.19
2024-02-13T14:01:37.853Z,100231.03
2024-02-13T14:04:40.924Z,100235.09
2024-02-13T14:07:43.459Z,100231.09
2024-02-13T14:10:46.462Z,100223.75
2024-02-13T14:13:51.097Z,100231.19
2024-02-13T14:16:55.747Z,100235.69
2024-02-13T14:19:58.355Z,100237.72
2024-02-13T14:23:02.270Z,100240.72
2024-02-13T14:26:05.551Z,100244.03
2024-02-13T14:29:12.224Z,100246.03
2024-02-13T14:32:16.178Z,100261.13
2024-02-13T14:35:19.307Z,100261.47
2024-02-13T14:38:22.593Z,100266.91
2024-02-13T14:41:26.179Z,100269.88
2024-02-13T14:44:28.988Z,100266.91
2024-02-13T14:47:32.901Z,100264.25
2024-02-13T14:50:36.161Z,100279.81
2024-02-13T14:53:39.173Z,100288.25
2024-02-13T14:56:42.963Z,100284.28
2024-02-13T14:59:46.510Z,100288.09
2024-02-13T15:02:49.333Z,100293.91
2024-02-13T15:05:53.210Z,100298.53
2024-02-13T15:08:56.208Z,100299.53
2024-02-13T15:11:59.308Z,100301.50
2024-02-13T15:15:02.744Z,100304.63
2024-02-13T15:18:07.808Z,100299.81
2024-02-13T15:21:10.932Z,100311.25
2024-02-13T15:24:13.915Z,100306.44
2024-02-13T15:27:16.539Z,100315.88
2024-02-13T15:30:19.707Z,100319.19
2024-02-13T15:33:22.654Z,100326.47
2024-02-13T15:36:38.382Z,100336.06
2024-02-13T15:39:59.332Z,100334.06
2024-02-13T15:43:21.172Z,100345.75
2024-02-13T15:46:42.054Z,100347.34
2024-02-13T15:49:45.686Z,100351.12
2024-02-13T15:52:52.145Z,100361.00
2024-02-13T15:55:55.124Z,100357.81
2024-02-13T15:58:57.775Z,100363.81
2024-02-13T16:02:01.155Z,100373.53
2024-02-13T16:05:07.448Z,100381.94
2024-02-13T16:08:11.797Z,100384.22
2024-02-13T16:11:15.660Z,100390.25
2024-02-13T16:14:19.081Z,100395.44
2024-02-13T16:17:22.185Z,100404.97
2024-02-13T16:20:24.909Z,100398.78
2024-02-13T16:23:27.818Z,100402.97
2024-02-13T16:26:32.199Z,100408.72
2024-02-13T16:29:35.605Z,100414.41
2024-02-13T16:32:40.764Z,100417.19
2024-02-13T16:35:44.234Z,100418.41
2024-02-13T16:38:46.814Z,100433.03
2024-02-13T16:41:53.548Z,100438.47
2024-02-13T16:44:56.859Z,100442.31
2024-02-13T16:48:00.004Z,100443.19
2024-02-13T16:51:03.217Z,100465.28
2024-02-13T16:54:08.388Z,100460.66
2024-02-13T16:57:11.701Z,100475.19
2024-02-13T17:00:15.127Z,100475.38
2024-02-13T17:03:17.776Z,100491.91
2024-02-13T17:06:20.986Z,100487.50
2024-02-13T17:09:24.055Z,100493.75
2024-02-13T17:12:29.077Z,100496.69
2024-02-13T17:15:31.591Z,100496.28
2024-02-13T17:18:34.776Z,100511.59
2024-02-13T17:21:37.510Z,100522.56
2024-02-13T17:24:41.176Z,100515.09
2024-02-13T17:27:43.903Z,100524.09
2024-02-13T17:30:46.759Z,100527.88
2024-02-13T17:33:49.475Z,100526.22
2024-02-13T17:36:52.393Z,100534.69
2024-02-13T17:39:54.910Z,100536.38
2024-02-13T17:42:57.842Z,100532.19
2024-02-13T17:46:00.536Z,100535.53
2024-02-13T17:49:04.593Z,100526.38
2024-02-13T17:52:07.611Z,100537.88
2024-02-13T17:55:11.330Z,100539.56
2024-02-13T17:58:14.678Z,100538.19
2024-02-13T18:01:17.656Z,100543.72
2024-02-13T18:04:22.207Z,100552.72
2024-02-13T18:07:24.741Z,100546.06
2024-02-13T18:10:27.732Z,100551.22
2024-02-13T18:13:30.848Z,100544.69
2024-02-13T18:16:35.254Z,100552.00
2024-02-13T18:19:37.964Z,100553.84
2024-02-13T18:22:41.561Z,100548.69
2024-02-13T18:25:44.940Z,100559.66
2024-02-13T18:28:47.770Z,100562.84
2024-02-13T18:31:50.470Z,100567.16
2024-02-13T18:34:54.369Z,100568.53
2024-02-13T18:38:00.223Z,100582.41
2024-02-13T18:41:03.958Z,100573.66
2024-02-13T18:44:06.990Z,100586.97
2024-02-13T18:47:12.460Z,100590.75
2024-02-13T18:50:17.917Z,100596.28
2024-02-13T18:53:23.871Z,100591.03
2024-02-13T18:56:33.612Z,100589.22
2024-02-13T18:59:36.891Z,100605.19
2024-02-13T19:02:39.876Z,100606.19
2024-02-13T19:05:43.065Z,100611.72
2024-02-13T19:08:45.817Z,100621.16
2024-02-13T19:11:52.942Z,100621.72
2024-02-13T19:14:55.736Z,100627.53
2024-02-13T19:17:59.002Z,100623.22
2024-02-13T19:21:01.906Z,100625.59
2024-02-13T19:24:05.231Z,100629.59
2024-02-13T19:27:11.064Z,100632.78
2024-02-13T19:30:14.609Z,100629.87
2024-02-13T19:33:18.166Z,100634.28
2024-02-13T19:36:21.282Z,100636.19
2024-02-13T19:39:24.658Z,100637.97
2024-02-13T19:42:28.434Z,100644.63
2024-02-13T19:45:31.144Z,100641.78
2024-02-13T19:48:38.541Z,100646.66
2024-02-13T19:51:41.923Z,100653.97
2024-02-13T19:54:46.141Z,100658.22
2024-02-13T19:57:48.632Z,100661.09
2024-02-13T20:00:51.937Z,100666.56
2024-02-13T20:03:56.187Z,100678.78
2024-02-13T20:07:00.562Z,100669.19
2024-02-13T20:10:03.665Z,100679.84
2024-02-13T20:13:06.600Z,100678.16
2024-02-13T20:16:09.778Z,100681.66
2024-02-13T20:19:15.524Z,100680.94
2024-02-13T20:22:18.571Z,100671.41
2024-02-13T20:25:21.408Z,100676.41
2024-02-13T20:28:24.176Z,100678.22
2024-02-13T20:31:27.098Z,100690.50
2024-02-13T20:34:30.369Z,100686.47
2024-02-13T20:37:33.059Z,100702.84
2024-02-13T20:40:37.103Z,100697.72
2024-02-13T20:43:44.661Z,100698.19
2024-02-13T20:46:48.273Z,100695.00
2024-02-13T20:49:50.956Z,100702.75
2024-02-13T20:52:55.120Z,100692.94
2024-02-13T20:56:02.502Z,100694.94
2024-02-13T20:59:05.602Z,100694.53
2024-02-13T21:02:08.945Z,100702.94
2024-02-13T21:05:12.125Z,100705.19
2024-02-13T21:08:15.098Z,100717.78
2024-02-13T21:11:18.876Z,100712.97
2024-02-13T21:14:21.896Z,100720.09
2024-02-13T21:17:25.115Z,100730.03
2024-02-13T21:20:31.332Z,100725.66
2024-02-13T21:23:53.158Z,100726.03
2024-02-13T21:26:56.332Z,100727.84
2024-02-13T21:29:59.691Z,100729.06
2024-02-13T21:33:02.476Z,100735.78
2024-02-13T21:36:06.862Z,100732.94
2024-02-13T21:39:11.838Z,100742.03
2024-02-13T21:42:15.713Z,100737.28
2024-02-13T21:45:18.625Z,100743.62
2024-02-13T21:48:21.764Z,100739.53
2024-02-13T21:51:24.277Z,100737.91
2024-02-13T21:54:27.110Z,100735.94
2024-02-13T21:57:29.999Z,100742.16
2024-02-13T22:00:33.369Z,100738.00
2024-02-13T22:03:36.828Z,100747.31
2024-02-13T22:06:39.723Z,100748.63
2024-02-13T22:09:42.815Z,100744.59
2024-02-13T22:12:47.237Z,100740.75
2024-02-13T22:15:50.278Z,100750.44
2024-02-13T22:18:52.928Z,100750.59
2024-02-13T22:21:55.814Z,100758.84
2024-02-13T22:24:58.804Z,100766.47
2024-02-13T22:28:02.647Z,100767.31
2024-02-13T22:31:06.433Z,100773.41
2024-02-13T22:34:09.341Z,100771.84
2024-02-13T22:37:12.009Z,100772.25
2024-02-13T22:40:15.223Z,100773.44
2024-02-13T22:43:19.039Z,100777.38
2024-02-13T22:46:25.179Z,100778.09
2024-02-13T22:49:29.039Z,100790.41
2024-02-13T22:52:34.233Z,100788.63
2024-02-13T22:55:37.031Z,100788.88
2024-02-13T22:58:39.830Z,100787.66
2024-02-13T23:01:42.989Z,100790.06
2024-02-13T23:04:51.682Z,100793.13
2024-02-13T23:07:54.627Z,100800.69
2024-02-13T23:10:57.764Z,100795.44
2024-02-13T23:14:00.496Z,100800.34
2024-02-13T23:17:03.581Z,100803.91
2024-02-13T23:20:11.769Z,100800.81
2024-02-13T23:23:14.712Z,100792.56
2024-02-13T23:26:17.762Z,100798.75
2024-02-13T23:29:22.309Z,100798.28
2024-02-13T23:32:25.093Z,100806.06
2024-02-13T23:35:28.049Z,100806.66
2024-02-13T23:38:30.716Z,100802.25
2024-02-13T23:41:33.901Z,100804.72
2024-02-13T23:44:36.568Z,100812.12
2024-02-13T23:47:39.992Z,100804.62
2024-02-13T23:50:42.608Z,100817.53
2024-02-13T23:53:46.352Z,100821.47
2024-02-13T23:56:49.374Z,100825.41
2024-02-13T23:59:52.328Z,100825.53
